createdAt,value
2018-02-21T00:02:06.333Z,107.18
2018-02-21T00:04:34.775Z,103.72
2018-02-21T00:07:03.905Z,119.43
2018-02-21T00:09:32.273Z,93.78
2018-02-21T00:12:00.678Z,105.75
2018-02-21T00:14:29.054Z,96.53
2018-02-21T00:16:57.462Z,94.62
2018-02-21T00:19:25.837Z,94.32
2018-02-21T00:21:54.481Z,109.28
2018-02-21T00:24:22.863Z,97.88
2018-02-21T00:26:51.240Z,94.47
2018-02-21T00:29:19.638Z,106.72
2018-02-21T00:31:48.033Z,101.03
2018-02-21T00:34:16.432Z,112.05
2018-02-21T00:36:45.574Z,109.07
2018-02-21T00:39:14.151Z,102.20
2018-02-21T00:41:42.567Z,103.85
2018-02-21T00:44:10.938Z,113.30
2018-02-21T00:46:39.335Z,103.80
2018-02-21T00:49:07.718Z,104.18
2018-02-21T00:51:36.110Z,104.47
2018-02-21T00:54:05.251Z,101.55
2018-02-21T00:56:33.662Z,108.12
2018-02-21T00:59:02.800Z,107.82
2018-02-21T01:01:31.162Z,94.18
2018-02-21T01:04:00.313Z,105.28
2018-02-21T01:06:28.682Z,105.22
2018-02-21T01:08:57.079Z,108.97
2018-02-21T01:11:25.448Z,97.90
2018-02-21T01:13:54.006Z,101.97
2018-02-21T01:16:22.373Z,96.87
2018-02-21T01:18:50.748Z,102.28
2018-02-21T01:21:20.526Z,102.95
2018-02-21T01:23:49.674Z,105.07
2018-02-21T01:26:18.066Z,102.07
2018-02-21T01:28:46.442Z,100.15
2018-02-21T01:31:14.854Z,105.03
2018-02-21T01:33:43.226Z,111.75
2018-02-21T01:36:11.598Z,106.00
2018-02-21T01:38:40.006Z,103.55
2018-02-21T01:41:09.141Z,103.53
2018-02-21T01:43:37.541Z,100.15
2018-02-21T01:46:05.913Z,105.07
2018-02-21T01:48:34.486Z,95.60
2018-02-21T01:51:02.858Z,105.80
2018-02-21T01:53:31.224Z,98.40
2018-02-21T01:55:59.613Z,113.37
2018-02-21T01:58:27.989Z,104.30
2018-02-21T02:00:56.382Z,102.50
2018-02-21T02:03:24.743Z,92.43
2018-02-21T02:05:53.334Z,109.90
2018-02-21T02:08:21.695Z,94.90
2018-02-21T02:10:50.082Z,100.30
2018-02-21T02:13:18.481Z,110.97
2018-02-21T02:15:46.858Z,100.28
2018-02-21T02:18:15.245Z,110.95
2018-02-21T02:20:43.626Z,109.15
2018-02-21T02:23:12.190Z,108.47
2018-02-21T02:25:40.561Z,108.22
2018-02-21T02:28:08.937Z,103.78
2018-02-21T02:30:37.330Z,98.95
2018-02-21T02:33:05.694Z,106.68
2018-02-21T02:35:34.088Z,108.12
2018-02-21T02:38:02.496Z,102.43
2018-02-21T02:40:30.880Z,107.00
2018-02-21T02:42:59.249Z,113.25
2018-02-21T02:45:27.900Z,106.03
2018-02-21T02:47:56.277Z,99.15
2018-02-21T02:50:24.654Z,93.93
2018-02-21T02:52:53.050Z,107.60
2018-02-21T02:55:21.427Z,108.12
2018-02-21T02:57:49.823Z,108.30
2018-02-21T03:00:18.202Z,116.18
2018-02-21T03:02:46.630Z,103.70
2018-02-21T03:05:14.992Z,96.10
2018-02-21T03:07:44.127Z,109.50
2018-02-21T03:10:13.046Z,108.90
2018-02-21T03:12:41.428Z,103.97
2018-02-21T03:15:09.824Z,109.50
2018-02-21T03:17:38.958Z,111.07
2018-02-21T03:20:07.556Z,124.95
2018-02-21T03:22:35.941Z,109.90
2018-02-21T03:25:07.034Z,99.60
2018-02-21T03:27:35.656Z,98.80
2018-02-21T03:30:04.018Z,112.22
2018-02-21T03:32:32.472Z,110.53
2018-02-21T03:35:01.609Z,100.05
2018-02-21T03:37:30.192Z,91.07
2018-02-21T03:39:58.561Z,122.95
2018-02-21T03:42:26.934Z,104.72
2018-02-21T03:44:55.321Z,116.85
2018-02-21T03:47:23.689Z,107.90
2018-02-21T03:49:52.079Z,111.95
2018-02-21T03:52:20.455Z,103.07
2018-02-21T03:54:48.859Z,118.57
2018-02-21T03:57:17.232Z,103.68
2018-02-21T03:59:45.601Z,107.40
2018-02-21T04:02:14.094Z,106.72
2018-02-21T04:04:42.472Z,111.45
2018-02-21T04:07:10.874Z,101.40
2018-02-21T04:09:39.241Z,99.13
2018-02-21T04:12:07.633Z,103.68
2018-02-21T04:14:36.301Z,100.03
2018-02-21T04:17:04.688Z,114.53
2018-02-21T04:19:33.082Z,112.32
2018-02-21T04:22:01.457Z,100.15
2018-02-21T04:24:30.457Z,107.47
2018-02-21T04:26:58.813Z,101.57
2018-02-21T04:29:27.677Z,106.55
2018-02-21T04:31:56.049Z,93.03
2018-02-21T04:34:24.419Z,103.60
2018-02-21T04:36:53.016Z,103.85
2018-02-21T04:39:21.565Z,96.80
2018-02-21T04:41:50.729Z,119.78
2018-02-21T04:44:19.100Z,128.80
2018-02-21T04:46:48.165Z,108.18
2018-02-21T04:49:16.533Z,94.35
2018-02-21T04:51:44.902Z,104.40
2018-02-21T04:54:14.228Z,97.80
2018-02-21T05:00:04.294Z,102.65
2018-02-21T05:02:33.542Z,99.90
2018-02-21T05:05:01.934Z,107.43
2018-02-21T05:07:30.313Z,110.63
2018-02-21T05:09:58.974Z,101.22
2018-02-21T05:12:27.565Z,106.07
2018-02-21T05:14:55.945Z,109.43
2018-02-21T05:17:24.343Z,101.45
2018-02-21T05:19:52.836Z,108.50
2018-02-21T05:22:21.234Z,110.47
2018-02-21T05:24:50.366Z,104.65
2018-02-21T05:27:18.777Z,104.78
2018-02-21T05:29:47.156Z,119.70
2018-02-21T05:32:15.535Z,99.15
2018-02-21T05:34:43.940Z,99.57
2018-02-21T05:37:13.093Z,102.85
2018-02-21T05:39:41.503Z,119.03
2018-02-21T05:42:09.880Z,99.20
2018-02-21T05:44:38.427Z,104.80
2018-02-21T05:47:06.890Z,114.72
2018-02-21T05:49:35.269Z,108.22
2018-02-21T05:52:03.670Z,114.65
2018-02-21T05:54:32.146Z,120.90
2018-02-21T05:57:00.557Z,112.10
2018-02-21T05:59:28.934Z,110.10
2018-02-21T06:01:57.336Z,111.90
2018-02-21T06:04:26.507Z,111.03
2018-02-21T06:06:54.960Z,116.00
2018-02-21T06:09:23.372Z,114.53
2018-02-21T06:11:51.751Z,113.97
2018-02-21T06:14:20.155Z,118.43
2018-02-21T06:16:49.301Z,108.70
2018-02-21T06:19:17.726Z,106.45
2018-02-21T06:21:46.120Z,108.93
2018-02-21T06:24:14.513Z,124.60
2018-02-21T06:26:42.914Z,112.55
2018-02-21T06:29:11.292Z,109.10
2018-02-21T06:31:39.693Z,108.97
2018-02-21T06:34:08.077Z,111.07
2018-02-21T06:36:37.150Z,123.72
2018-02-21T06:39:05.530Z,116.80
2018-02-21T06:41:33.910Z,114.72
2018-02-21T06:44:02.314Z,110.47
2018-02-21T06:46:30.695Z,111.95
2018-02-21T06:48:59.093Z,129.12
2018-02-21T06:51:28.238Z,122.95
2018-02-21T06:53:56.659Z,123.90
2018-02-21T06:56:25.805Z,110.28
2018-02-21T06:58:54.195Z,111.18
2018-02-21T07:01:22.602Z,115.30
2018-02-21T07:03:50.979Z,102.12
2018-02-21T07:06:21.324Z,108.95
2018-02-21T07:08:51.589Z,100.72
2018-02-21T07:11:21.445Z,121.85
2018-02-21T07:13:49.842Z,113.85
2018-02-21T07:16:18.222Z,103.60
2018-02-21T07:18:46.620Z,107.07
2018-02-21T07:21:14.996Z,103.80
2018-02-21T07:23:43.395Z,102.82
2018-02-21T07:26:11.984Z,98.07
2018-02-21T07:28:40.465Z,101.38
2018-02-21T07:31:08.840Z,96.20
2018-02-21T07:33:37.241Z,107.03
2018-02-21T07:36:05.668Z,96.20
2018-02-21T07:38:34.792Z,95.50
2018-02-21T07:41:03.196Z,96.47
2018-02-21T07:43:31.669Z,100.87
2018-02-21T07:46:00.334Z,102.12
2018-02-21T07:48:28.702Z,95.85
2018-02-21T07:50:57.069Z,103.45
2018-02-21T07:53:25.472Z,105.40
2018-02-21T07:55:53.850Z,96.87
2018-02-21T07:58:22.239Z,90.28
2018-02-21T08:00:50.617Z,82.07
2018-02-21T08:03:19.025Z,95.95
2018-02-21T08:05:47.392Z,83.55
2018-02-21T08:08:15.763Z,94.75
2018-02-21T08:10:44.164Z,117.35
2018-02-21T08:13:13.302Z,101.53
2018-02-21T08:15:41.726Z,94.50
2018-02-21T08:18:10.110Z,104.68
2018-02-21T08:20:38.851Z,94.65
2018-02-21T08:23:07.213Z,99.15
2018-02-21T08:25:35.586Z,100.68
2018-02-21T08:28:03.974Z,99.65
2018-02-21T08:30:32.341Z,96.78
2018-02-21T08:33:00.743Z,107.75
2018-02-21T08:35:29.146Z,108.12
2018-02-21T08:37:57.705Z,115.15
2018-02-21T08:40:26.070Z,107.20
2018-02-21T08:42:54.437Z,108.80
2018-02-21T08:45:22.834Z,103.90
2018-02-21T08:47:51.211Z,108.20
2018-02-21T08:50:19.615Z,101.45
2018-02-21T08:52:47.988Z,106.25
2018-02-21T08:55:16.562Z,107.43
2018-02-21T08:57:44.935Z,92.28
2018-02-21T09:00:13.346Z,106.30
2018-02-21T09:02:41.768Z,106.18
2018-02-21T09:05:10.149Z,106.45
2018-02-21T09:07:38.542Z,115.78
2018-02-21T09:10:06.913Z,106.00
2018-02-21T09:12:35.523Z,107.28
2018-02-21T09:15:03.908Z,103.22
2018-02-21T09:17:32.279Z,126.15
2018-02-21T09:20:00.669Z,107.72
2018-02-21T09:22:29.035Z,99.43
2018-02-21T09:24:57.565Z,102.65
2018-02-21T09:27:26.715Z,119.43
2018-02-21T09:29:55.502Z,103.25
2018-02-21T09:32:23.878Z,105.53
2018-02-21T09:34:52.245Z,99.80
2018-02-21T09:37:20.641Z,107.75
2018-02-21T09:39:49.008Z,118.90
2018-02-21T09:42:17.394Z,109.75
2018-02-21T09:44:45.771Z,120.05
2018-02-21T09:47:14.353Z,113.82
2018-02-21T09:49:42.729Z,108.10
2018-02-21T09:52:11.108Z,110.12
2018-02-21T09:54:39.601Z,110.50
2018-02-21T09:57:07.969Z,105.63
2018-02-21T09:59:36.375Z,99.03
2018-02-21T10:02:04.759Z,95.93
2018-02-21T10:04:33.184Z,102.80
2018-02-21T10:07:01.562Z,118.37
2018-02-21T10:09:29.959Z,101.87
2018-02-21T10:11:58.372Z,99.37
2018-02-21T10:14:26.758Z,97.80
2018-02-21T10:16:55.698Z,91.47
2018-02-21T10:19:24.075Z,100.00
2018-02-21T10:21:52.875Z,100.13
2018-02-21T10:24:21.265Z,100.33
2018-02-21T10:26:49.671Z,97.63
2018-02-21T10:29:18.066Z,97.73
2018-02-21T10:31:47.231Z,102.73
2018-02-21T10:34:15.652Z,93.73
2018-02-21T10:36:44.025Z,97.40
2018-02-21T10:39:13.568Z,105.03
2018-02-21T10:41:42.000Z,94.20
2018-02-21T10:44:11.153Z,99.03
2018-02-21T10:46:39.551Z,102.73
2018-02-21T10:49:07.926Z,99.47
2018-02-21T10:51:36.338Z,102.70
2018-02-21T10:54:05.486Z,93.23
2018-02-21T10:56:34.056Z,101.83
2018-02-21T10:59:02.436Z,102.43
2018-02-21T11:01:30.828Z,113.23
2018-02-21T11:03:59.242Z,99.63
2018-02-21T11:06:27.614Z,93.40
2018-02-21T11:08:56.010Z,83.90
2018-02-21T11:11:25.155Z,104.20
2018-02-21T11:13:53.582Z,87.13
2018-02-21T11:16:21.967Z,91.03
2018-02-21T11:18:51.114Z,88.13
2018-02-21T11:21:19.525Z,90.77
2018-02-21T11:23:47.910Z,89.20
2018-02-21T11:26:17.086Z,96.83
2018-02-21T11:28:45.461Z,91.30
2018-02-21T11:31:13.858Z,93.53
2018-02-21T11:33:42.235Z,88.53
2018-02-21T11:36:10.614Z,89.60
2018-02-21T11:38:39.029Z,89.90
2018-02-21T11:41:07.405Z,92.87
2018-02-21T11:43:35.807Z,79.97
2018-02-21T11:46:04.190Z,90.33
2018-02-21T11:48:32.982Z,91.73
2018-02-21T11:51:01.359Z,87.27
2018-02-21T11:53:29.738Z,93.57
2018-02-21T11:55:58.144Z,92.60
2018-02-21T11:58:26.526Z,83.00
2018-02-21T12:00:54.930Z,92.03
2018-02-21T12:03:24.079Z,94.00
2018-02-21T12:05:52.509Z,88.13
2018-02-21T12:08:21.652Z,91.70
2018-02-21T12:10:50.028Z,88.17
2018-02-21T12:13:18.438Z,87.10
2018-02-21T12:15:46.811Z,90.33
2018-02-21T12:18:15.229Z,85.90
2018-02-21T12:20:43.610Z,84.63
2018-02-21T12:23:12.033Z,70.30
2018-02-21T12:25:40.405Z,82.70
2018-02-21T12:28:08.789Z,69.23
2018-02-21T12:30:37.190Z,82.10
2018-02-21T12:33:05.570Z,71.27
2018-02-21T12:35:33.969Z,81.30
2018-02-21T12:38:03.116Z,83.20
2018-02-21T12:40:37.155Z,84.57
2018-02-21T12:43:05.506Z,94.73
2018-02-21T12:45:34.266Z,93.50
2018-02-21T12:48:02.637Z,94.73
2018-02-21T12:50:31.022Z,97.33
2018-02-21T12:52:59.433Z,98.43
2018-02-21T12:55:27.865Z,99.13
2018-02-21T12:57:56.243Z,104.27
2018-02-21T13:00:24.630Z,92.50
2018-02-21T13:02:53.041Z,95.43
2018-02-21T13:05:21.415Z,99.63
2018-02-21T13:07:49.853Z,89.13
2018-02-21T13:10:19.016Z,88.37
2018-02-21T13:12:47.400Z,93.23
2018-02-21T13:15:15.803Z,92.23
2018-02-21T13:17:44.196Z,108.03
2018-02-21T13:20:12.642Z,100.50
2018-02-21T13:22:41.795Z,97.50
2018-02-21T13:25:10.197Z,98.35
2018-02-21T13:27:38.614Z,109.65
2018-02-21T13:30:07.861Z,91.30
2018-02-21T13:32:36.269Z,100.72
2018-02-21T13:35:05.462Z,107.78
2018-02-21T13:37:33.876Z,93.47
2018-02-21T13:40:03.021Z,102.03
2018-02-21T13:42:31.412Z,93.53
2018-02-21T13:45:00.217Z,103.22
2018-02-21T13:47:28.594Z,98.37
2018-02-21T13:49:57.001Z,103.55
2018-02-21T13:52:25.418Z,110.25
2018-02-21T13:54:53.988Z,102.05
2018-02-21T13:57:22.381Z,98.60
2018-02-21T13:59:50.936Z,107.45
2018-02-21T14:02:19.345Z,100.10
2018-02-21T14:04:47.727Z,100.03
2018-02-21T14:07:16.131Z,96.90
2018-02-21T14:09:44.530Z,98.68
2018-02-21T14:12:13.277Z,94.97
2018-02-21T14:14:41.687Z,96.68
2018-02-21T14:17:10.841Z,101.00
2018-02-21T14:19:39.245Z,95.32
2018-02-21T14:22:07.625Z,92.95
2018-02-21T14:24:36.030Z,105.45
2018-02-21T14:27:05.205Z,94.70
2018-02-21T14:29:33.748Z,93.30
2018-02-21T14:32:02.234Z,85.90
2018-02-21T14:34:30.645Z,100.07
2018-02-21T14:36:59.130Z,98.00
2018-02-21T14:39:28.277Z,89.00
2018-02-21T14:41:56.665Z,106.45
2018-02-21T14:44:25.135Z,113.25
2018-02-21T14:46:53.740Z,107.35
2018-02-21T14:49:22.125Z,101.50
2018-02-21T14:51:50.495Z,102.00
2018-02-21T14:54:19.766Z,105.70
2018-02-21T14:56:48.139Z,109.47
2018-02-21T14:59:16.563Z,111.88
2018-02-21T15:01:45.244Z,98.90
2018-02-21T15:04:13.915Z,110.40
2018-02-21T15:06:42.399Z,108.00
2018-02-21T15:09:10.776Z,102.32
2018-02-21T15:11:39.259Z,112.25
2018-02-21T15:14:07.882Z,108.15
2018-02-21T15:16:36.287Z,104.60
2018-02-21T15:19:04.670Z,101.25
2018-02-21T15:21:33.277Z,104.12
2018-02-21T15:24:01.859Z,110.35
2018-02-21T15:26:30.554Z,97.22
2018-02-21T15:28:59.094Z,110.53
2018-02-21T15:31:28.373Z,99.43
2018-02-21T15:33:56.966Z,115.45
2018-02-21T15:36:26.147Z,120.82
2018-02-21T15:38:54.825Z,105.28
2018-02-21T15:41:23.252Z,96.35
2018-02-21T15:43:52.358Z,101.53
2018-02-21T15:46:21.083Z,91.97
2018-02-21T15:48:50.234Z,91.80
2018-02-21T15:51:18.739Z,93.22
2018-02-21T15:53:47.270Z,97.90
2018-02-21T15:56:16.467Z,99.72
2018-02-21T15:58:45.670Z,94.87
2018-02-21T16:01:14.838Z,94.03
2018-02-21T16:03:43.230Z,97.78
2018-02-21T16:06:11.775Z,90.55
2018-02-21T16:08:40.209Z,100.70
2018-02-21T16:11:09.350Z,101.30
2018-02-21T16:13:37.782Z,90.05
2018-02-21T16:16:07.030Z,102.85
2018-02-21T16:18:35.628Z,95.43
2018-02-21T16:21:04.160Z,106.72
2018-02-21T16:23:33.913Z,104.10
2018-02-21T16:26:03.179Z,108.53
2018-02-21T16:28:31.594Z,98.40
2018-02-21T16:31:00.532Z,93.87
2018-02-21T16:33:29.742Z,96.37
2018-02-21T16:35:58.254Z,87.72
2018-02-21T16:38:26.652Z,100.22
2018-02-21T16:40:55.030Z,101.20
2018-02-21T16:43:23.456Z,96.90
2018-02-21T16:45:51.973Z,87.47
2018-02-21T16:48:21.124Z,87.20
2018-02-21T16:50:49.648Z,90.40
2018-02-21T16:53:18.714Z,84.22
2018-02-21T16:55:48.968Z,86.30
2018-02-21T16:58:17.698Z,91.57
2018-02-21T17:00:48.638Z,96.05
2018-02-21T17:03:18.609Z,88.60
2018-02-21T17:05:48.973Z,104.00
2018-02-21T17:08:17.835Z,91.05
2018-02-21T17:10:47.943Z,88.55
2018-02-21T17:13:17.549Z,92.40
2018-02-21T17:15:47.305Z,87.45
2018-02-21T17:18:16.218Z,84.32
2018-02-21T17:20:46.713Z,91.50
2018-02-21T17:23:15.260Z,94.30
2018-02-21T17:25:43.690Z,96.78
2018-02-21T17:28:13.148Z,76.07
2018-02-21T17:30:42.293Z,89.15
2018-02-21T17:33:11.128Z,82.55
2018-02-21T17:35:40.350Z,85.22
2018-02-21T17:38:09.011Z,85.07
2018-02-21T17:43:45.737Z,93.70
2018-02-21T17:46:14.226Z,102.22
2018-02-21T17:48:43.586Z,84.03
2018-02-21T17:51:11.962Z,88.95
2018-02-21T17:53:41.172Z,91.70
2018-02-21T17:56:11.142Z,85.32
2018-02-21T17:58:39.660Z,95.72
2018-02-21T18:01:08.086Z,91.20
2018-02-21T18:03:37.228Z,83.70
2018-02-21T18:06:05.769Z,93.87
2018-02-21T18:08:34.911Z,93.28
2018-02-21T18:11:03.281Z,87.75
2018-02-21T18:13:31.666Z,96.18
2018-02-21T18:16:00.026Z,86.30
2018-02-21T18:18:28.426Z,87.12
2018-02-21T18:20:56.794Z,79.12
2018-02-21T18:23:25.402Z,75.53
2018-02-21T18:25:53.817Z,80.90
2018-02-21T18:28:23.442Z,71.68
2018-02-21T18:30:52.023Z,87.12
2018-02-21T18:33:20.393Z,77.68
2018-02-21T18:35:49.556Z,75.47
2018-02-21T18:38:18.206Z,63.67
2018-02-21T18:40:46.800Z,75.72
2018-02-21T18:43:15.197Z,69.55
2018-02-21T18:45:43.583Z,66.78
2018-02-21T18:48:11.978Z,70.32
2018-02-21T18:50:40.386Z,61.28
2018-02-21T18:53:08.782Z,71.57
2018-02-21T18:55:37.278Z,81.18
2018-02-21T18:58:05.961Z,75.65
2018-02-21T19:00:34.450Z,76.18
2018-02-21T19:03:03.645Z,78.35
2018-02-21T19:05:32.088Z,74.22
2018-02-21T19:08:01.214Z,74.90
2018-02-21T19:10:29.607Z,78.90
2018-02-21T19:12:57.997Z,64.90
2018-02-21T19:15:26.892Z,78.65
2018-02-21T19:17:56.081Z,69.62
2018-02-21T19:20:24.571Z,79.85
2018-02-21T19:22:53.078Z,90.65
2018-02-21T19:25:21.485Z,79.18
2018-02-21T19:27:49.871Z,81.53
2018-02-21T19:30:18.327Z,63.47
2018-02-21T19:32:47.152Z,76.40
2018-02-21T19:35:15.567Z,70.82
2018-02-21T19:37:44.117Z,78.53
2018-02-21T19:40:13.106Z,75.22
2018-02-21T19:42:41.676Z,75.75
2018-02-21T19:45:10.086Z,78.80
2018-02-21T19:47:38.669Z,82.22
2018-02-21T19:50:07.820Z,77.25
2018-02-21T19:52:36.265Z,76.60
2018-02-21T19:55:06.135Z,70.07
2018-02-21T19:57:35.100Z,81.60
2018-02-21T20:00:03.616Z,81.57
2018-02-21T20:02:32.600Z,75.05
2018-02-21T20:05:01.639Z,74.25
2018-02-21T20:07:31.430Z,86.12
2018-02-21T20:10:00.869Z,83.05
2018-02-21T20:12:29.652Z,77.28
2018-02-21T20:14:58.633Z,76.22
2018-02-21T20:17:29.315Z,78.90
2018-02-21T20:20:03.646Z,75.97
2018-02-21T20:22:33.855Z,73.18
2018-02-21T20:25:02.870Z,81.75
2018-02-21T20:27:32.179Z,68.93
2018-02-21T20:30:01.578Z,73.80
2018-02-21T20:32:30.257Z,69.68
2018-02-21T20:34:59.804Z,74.20
2018-02-21T20:37:28.859Z,76.35
2018-02-21T20:39:58.769Z,84.13
2018-02-21T20:42:28.112Z,79.25
2018-02-21T20:44:57.395Z,85.22
2018-02-21T20:47:26.211Z,81.32
2018-02-21T20:49:55.326Z,80.87
2018-02-21T20:52:24.353Z,85.20
2018-02-21T20:54:53.569Z,74.82
2018-02-21T20:57:22.379Z,94.37
2018-02-21T20:59:51.580Z,76.87
2018-02-21T21:02:21.042Z,74.35
2018-02-21T21:04:49.921Z,82.35
2018-02-21T21:07:19.442Z,85.05
2018-02-21T21:09:47.862Z,91.55
2018-02-21T21:12:16.279Z,82.60
2018-02-21T21:14:44.649Z,74.18
2018-02-21T21:17:13.246Z,86.87
2018-02-21T21:19:41.778Z,88.10
2018-02-21T21:22:11.398Z,81.80
2018-02-21T21:24:39.938Z,75.45
2018-02-21T21:27:08.373Z,92.88
2018-02-21T21:29:36.852Z,79.18
2018-02-21T21:32:05.315Z,82.95
2018-02-21T21:34:33.754Z,89.20
2018-02-21T21:37:03.469Z,84.45
2018-02-21T21:39:33.047Z,85.47
2018-02-21T21:42:02.035Z,70.37
2018-02-21T21:44:31.103Z,66.87
2018-02-21T21:47:00.353Z,87.35
2018-02-21T21:49:32.868Z,75.28
2018-02-21T21:51:58.897Z,82.95
2018-02-21T21:54:28.342Z,73.03
2018-02-21T21:56:58.534Z,73.28
2018-02-21T21:59:27.889Z,75.15
2018-02-21T22:01:56.607Z,72.03
2018-02-21T22:04:26.086Z,86.57
2018-02-21T22:06:56.427Z,87.70
2018-02-21T22:09:26.057Z,75.57
2018-02-21T22:11:55.965Z,78.20
2018-02-21T22:14:26.283Z,79.90
2018-02-21T22:16:57.004Z,81.78
2018-02-21T22:19:26.938Z,84.55
2018-02-21T22:21:56.302Z,73.45
2018-02-21T22:24:26.145Z,79.78
2018-02-21T22:26:56.587Z,93.53
2018-02-21T22:29:26.381Z,91.03
2018-02-21T22:31:57.419Z,82.75
2018-02-21T22:34:27.839Z,81.68
2018-02-21T22:36:58.222Z,79.65
2018-02-21T22:39:27.878Z,86.07
2018-02-21T22:41:58.500Z,72.25
2018-02-21T22:44:28.528Z,86.57
2018-02-21T22:46:58.436Z,76.15
2018-02-21T22:49:28.541Z,80.10
2018-02-21T22:51:58.766Z,77.00
2018-02-21T22:54:28.859Z,83.00
2018-02-21T22:56:58.318Z,71.55
2018-02-21T22:59:27.917Z,78.40
2018-02-21T23:01:57.891Z,83.68
2018-02-21T23:04:28.011Z,72.37
2018-02-21T23:06:57.917Z,72.20
2018-02-21T23:09:28.563Z,74.45
2018-02-21T23:11:59.164Z,73.82
2018-02-21T23:14:28.512Z,66.85
2018-02-21T23:16:57.138Z,78.97
2018-02-21T23:19:25.522Z,73.70
2018-02-21T23:21:55.113Z,77.37
2018-02-21T23:24:25.326Z,80.03
2018-02-21T23:26:55.125Z,100.40
2018-02-21T23:29:25.011Z,83.07
2018-02-21T23:31:55.251Z,89.57
2018-02-21T23:34:25.613Z,80.00
2018-02-21T23:36:55.673Z,63.17
2018-02-21T23:39:25.758Z,76.85
2018-02-21T23:41:55.180Z,72.65
2018-02-21T23:44:24.672Z,72.90
2018-02-21T23:46:53.596Z,68.70
2018-02-21T23:49:22.098Z,73.30
2018-02-21T23:51:50.482Z,66.87
2018-02-21T23:54:19.649Z,68.40
2018-02-21T23:56:48.030Z,57.95
2018-02-21T23:59:17.394Z,68.45
